Terminal Aerodrome Forecast
Issued by NWS St Louis, MO

Home | Current Version | Previous Version | Graphics & Text | Print | Product List | Glossary On
Versions: 1 2 3 4 5 6 7 8 9 10 11 12 13 14 15 16 17 18 19 20 21 22 23 24 25 26 27 28
000
FTUS43 KLSX 220912 AAA
TAFSTL
TAF AMD
KSTL 220912Z 2209/2312 04005KT P6SM SCT120 OVC250
     FM221600 02009KT 6SM -SHRA OVC040
     FM222000 35014G26KT P6SM OVC035
     FM230000 33013G20KT P6SM OVC100
     FM230900 32011KT P6SM BKN010=

USA.gov is the U.S. government's official web portal to all federal, state and local government web resources and services.